EPMO

Details ICAO EPMO (WMI)
Name MODLIN
Region Poland
Timezone Europe/Warsaw (UTC+2.0)
Plans Departing 203
Arriving 189
Stats Elevation 340 ft / 104 m (AMSL)
Location 52.451200° 20.651900°
Runways 1
Magnetic Variation 5.876° E
Sunrise 2018-10-20 05:12:17 UTC / 2018-10-20 07:12:17 Local
Sunset 2018-10-20 15:34:26 UTC / 2018-10-20 17:34:26 Local
Advertisement - Login to hide

Runways

ID Width Length Bearing (true/mag) Surface Threshold Overrun Markings Lighting
08 197 ft / 60 m 8,204 ft / 2,501 m 81.22° / 75.35° ASPHALT 0 ft / 0 m 0 ft / 0 m PREC-APP CENTERLINE
26 197 ft / 60 m 8,204 ft / 2,501 m 261.25° / 255.38° ASPHALT 0 ft / 0 m 0 ft / 0 m PREC-APP CENTERLINE

Map

Weather


0- 5 10 15 20 25 30 35+ Temperature / °C

Clouds and Precipitation
Forecast for 2018-10-20 06:00 UTC. Updated 3 hours ago

Ground ~20,000 ft ~40,000 ft Winds

METAR

EPMO 200630Z 05003KT 010V080 CAVOK 07/06 Q1024

TAF

TAF EPMO 200530Z 2006/2106 VRB03KT CAVOK BECMG 2008/2010 BKN014 TEMPO 2009/2018 4000 -RA BR BKN007 BECMG 2018/2021 1500 BR BKN005 PROB40 2021/2106 0300 FG BKN001

Frequencies

Recorded 120.32 MHz Warszawa Information
Approach 128.80 MHz Warszawa Approach
Tower 123.92 MHz Modlin Tower
Warning: Do not use this data for real-world aviation or navigation. No guarantee of current accuracy is given.